sensor_id;sensor_type;location;lat;lon;timestamp;temperature;humidity
9925;DHT22;5001;51.674;7.868;2024-01-30T00:01:08;4.60;99.90
9925;DHT22;5001;51.674;7.868;2024-01-30T00:03:35;4.60;99.90
9925;DHT22;5001;51.674;7.868;2024-01-30T00:06:03;4.60;99.90
9925;DHT22;5001;51.674;7.868;2024-01-30T00:08:30;4.60;99.90
9925;DHT22;5001;51.674;7.868;2024-01-30T00:10:57;4.60;99.90
9925;DHT22;5001;51.674;7.868;2024-01-30T00:13:24;4.60;99.90
9925;DHT22;5001;51.674;7.868;2024-01-30T00:15:51;4.60;99.90
9925;DHT22;5001;51.674;7.868;2024-01-30T00:18:18;4.60;99.90
9925;DHT22;5001;51.674;7.868;2024-01-30T00:20:46;4.50;99.90
9925;DHT22;5001;51.674;7.868;2024-01-30T00:23:13;4.50;99.90
9925;DHT22;5001;51.674;7.868;2024-01-30T00:25:40;4.50;99.90
9925;DHT22;5001;51.674;7.868;2024-01-30T00:28:07;4.40;99.90
9925;DHT22;5001;51.674;7.868;2024-01-30T00:30:34;4.40;99.90
9925;DHT22;5001;51.674;7.868;2024-01-30T00:33:01;4.40;99.90
9925;DHT22;5001;51.674;7.868;2024-01-30T00:35:27;4.40;99.90
9925;DHT22;5001;51.674;7.868;2024-01-30T00:37:56;4.40;99.90
9925;DHT22;5001;51.674;7.868;2024-01-30T00:40:24;4.40;99.90
9925;DHT22;5001;51.674;7.868;2024-01-30T00:42:51;4.30;99.90
9925;DHT22;5001;51.674;7.868;2024-01-30T00:45:18;4.30;99.90
9925;DHT22;5001;51.674;7.868;2024-01-30T00:47:45;4.30;99.90
9925;DHT22;5001;51.674;7.868;2024-01-30T00:50:12;4.20;99.90
9925;DHT22;5001;51.674;7.868;2024-01-30T00:52:39;4.20;99.90
9925;DHT22;5001;51.674;7.868;2024-01-30T00:55:08;4.20;99.90
9925;DHT22;5001;51.674;7.868;2024-01-30T00:57:35;4.20;99.90
9925;DHT22;5001;51.674;7.868;2024-01-30T01:00:03;4.20;99.90
9925;DHT22;5001;51.674;7.868;2024-01-30T01:02:30;4.10;99.90
9925;DHT22;5001;51.674;7.868;2024-01-30T01:04:57;4.10;99.90
9925;DHT22;5001;51.674;7.868;2024-01-30T01:07:24;4.10;99.90
9925;DHT22;5001;51.674;7.868;2024-01-30T01:09:51;4.10;99.90
9925;DHT22;5001;51.674;7.868;2024-01-30T01:12:18;4.20;99.90
9925;DHT22;5001;51.674;7.868;2024-01-30T01:14:45;4.20;99.90
9925;DHT22;5001;51.674;7.868;2024-01-30T01:17:12;4.20;99.90
9925;DHT22;5001;51.674;7.868;2024-01-30T01:19:39;4.20;99.90
9925;DHT22;5001;51.674;7.868;2024-01-30T01:22:06;4.20;99.90
9925;DHT22;5001;51.674;7.868;2024-01-30T01:24:33;4.20;99.90
9925;DHT22;5001;51.674;7.868;2024-01-30T01:27:00;4.20;99.90
9925;DHT22;5001;51.674;7.868;2024-01-30T01:29:27;4.20;99.90
9925;DHT22;5001;51.674;7.868;2024-01-30T01:31:58;4.20;99.90
9925;DHT22;5001;51.674;7.868;2024-01-30T01:34:25;4.20;99.90
9925;DHT22;5001;51.674;7.868;2024-01-30T01:36:56;4.20;99.90
9925;DHT22;5001;51.674;7.868;2024-01-30T01:39:23;4.20;99.90
9925;DHT22;5001;51.674;7.868;2024-01-30T01:41:50;4.30;99.90
9925;DHT22;5001;51.674;7.868;2024-01-30T01:44:18;4.30;99.90
9925;DHT22;5001;51.674;7.868;2024-01-30T01:46:46;4.20;99.90
9925;DHT22;5001;51.674;7.868;2024-01-30T01:49:13;4.20;99.90
9925;DHT22;5001;51.674;7.868;2024-01-30T01:51:42;4.30;99.90
9925;DHT22;5001;51.674;7.868;2024-01-30T01:54:12;4.30;99.90
9925;DHT22;5001;51.674;7.868;2024-01-30T01:56:39;4.20;99.90
9925;DHT22;5001;51.674;7.868;2024-01-30T01:59:07;4.20;99.90
9925;DHT22;5001;51.674;7.868;2024-01-30T02:01:38;4.20;99.90
9925;DHT22;5001;51.674;7.868;2024-01-30T02:04:08;4.20;99.90
9925;DHT22;5001;51.674;7.868;2024-01-30T02:06:35;4.20;99.90
9925;DHT22;5001;51.674;7.868;2024-01-30T02:09:02;4.40;1.00
9925;DHT22;5001;51.674;7.868;2024-01-30T02:11:31;4.70;1.00
9925;DHT22;5001;51.674;7.868;2024-01-30T02:14:05;4.70;1.00
9925;DHT22;5001;51.674;7.868;2024-01-30T02:16:32;4.60;1.00
9925;DHT22;5001;51.674;7.868;2024-01-30T02:18:59;4.60;1.00
9925;DHT22;5001;51.674;7.868;2024-01-30T02:21:26;4.50;1.00
9925;DHT22;5001;51.674;7.868;2024-01-30T02:23:54;4.40;1.00
9925;DHT22;5001;51.674;7.868;2024-01-30T02:26:25;4.30;1.00
9925;DHT22;5001;51.674;7.868;2024-01-30T02:28:52;4.30;1.00
9925;DHT22;5001;51.674;7.868;2024-01-30T02:31:18;4.20;1.00
9925;DHT22;5001;51.674;7.868;2024-01-30T02:33:46;4.20;1.00
9925;DHT22;5001;51.674;7.868;2024-01-30T02:36:13;4.20;1.00
9925;DHT22;5001;51.674;7.868;2024-01-30T02:38:40;4.20;1.00
9925;DHT22;5001;51.674;7.868;2024-01-30T02:41:06;4.20;1.00
9925;DHT22;5001;51.674;7.868;2024-01-30T02:43:33;4.30;1.00
9925;DHT22;5001;51.674;7.868;2024-01-30T02:46:00;4.30;1.00
9925;DHT22;5001;51.674;7.868;2024-01-30T02:48:28;4.40;1.00
9925;DHT22;5001;51.674;7.868;2024-01-30T02:50:55;4.40;1.00
9925;DHT22;5001;51.674;7.868;2024-01-30T02:53:22;4.40;1.00
9925;DHT22;5001;51.674;7.868;2024-01-30T02:55:48;4.40;1.00
9925;DHT22;5001;51.674;7.868;2024-01-30T02:58:15;4.40;1.00
9925;DHT22;5001;51.674;7.868;2024-01-30T03:04:42;4.50;1.00
9925;DHT22;5001;51.674;7.868;2024-01-30T03:07:10;4.80;1.00
9925;DHT22;5001;51.674;7.868;2024-01-30T03:09:37;4.80;1.00
9925;DHT22;5001;51.674;7.868;2024-01-30T03:12:05;5.00;1.00
9925;DHT22;5001;51.674;7.868;2024-01-30T03:14:36;5.20;1.00
9925;DHT22;5001;51.674;7.868;2024-01-30T03:17:03;5.10;1.00
9925;DHT22;5001;51.674;7.868;2024-01-30T03:19:30;5.10;1.00
9925;DHT22;5001;51.674;7.868;2024-01-30T03:21:57;4.90;1.00
9925;DHT22;5001;51.674;7.868;2024-01-30T03:24:24;4.90;1.00
9925;DHT22;5001;51.674;7.868;2024-01-30T03:26:51;5.10;1.00
9925;DHT22;5001;51.674;7.868;2024-01-30T03:29:18;5.30;1.00
9925;DHT22;5001;51.674;7.868;2024-01-30T03:31:47;5.50;1.00
9925;DHT22;5001;51.674;7.868;2024-01-30T03:34:14;5.60;1.00
9925;DHT22;5001;51.674;7.868;2024-01-30T03:36:41;5.80;1.00
9925;DHT22;5001;51.674;7.868;2024-01-30T03:39:08;5.80;1.00
9925;DHT22;5001;51.674;7.868;2024-01-30T03:41:35;5.80;1.00
9925;DHT22;5001;51.674;7.868;2024-01-30T03:44:02;5.70;99.90
9925;DHT22;5001;51.674;7.868;2024-01-30T03:46:29;5.50;1.00
9925;DHT22;5001;51.674;7.868;2024-01-30T03:48:56;5.70;1.00
9925;DHT22;5001;51.674;7.868;2024-01-30T03:51:23;5.90;99.90
9925;DHT22;5001;51.674;7.868;2024-01-30T03:53:49;6.00;99.90
9925;DHT22;5001;51.674;7.868;2024-01-30T03:56:16;6.10;99.90
9925;DHT22;5001;51.674;7.868;2024-01-30T03:58:43;6.00;99.90
9925;DHT22;5001;51.674;7.868;2024-01-30T04:01:14;6.10;99.90
9925;DHT22;5001;51.674;7.868;2024-01-30T04:03:42;6.20;99.90
9925;DHT22;5001;51.674;7.868;2024-01-30T04:06:11;6.20;99.90
9925;DHT22;5001;51.674;7.868;2024-01-30T04:08:38;6.20;99.90
9925;DHT22;5001;51.674;7.868;2024-01-30T04:11:06;6.20;99.90
9925;DHT22;5001;51.674;7.868;2024-01-30T04:13:33;6.30;99.90
9925;DHT22;5001;51.674;7.868;2024-01-30T04:16:00;6.30;99.90
9925;DHT22;5001;51.674;7.868;2024-01-30T04:18:29;6.10;99.90
9925;DHT22;5001;51.674;7.868;2024-01-30T04:20:56;6.20;99.90
9925;DHT22;5001;51.674;7.868;2024-01-30T04:23:23;6.30;99.90
9925;DHT22;5001;51.674;7.868;2024-01-30T04:25:50;6.20;99.90
9925;DHT22;5001;51.674;7.868;2024-01-30T04:28:17;6.10;99.90
9925;DHT22;5001;51.674;7.868;2024-01-30T04:30:44;6.10;99.90
9925;DHT22;5001;51.674;7.868;2024-01-30T04:33:11;6.10;99.90
9925;DHT22;5001;51.674;7.868;2024-01-30T04:35:38;6.00;99.90
9925;DHT22;5001;51.674;7.868;2024-01-30T04:38:05;5.90;99.90
9925;DHT22;5001;51.674;7.868;2024-01-30T04:40:32;5.80;99.90
9925;DHT22;5001;51.674;7.868;2024-01-30T04:42:59;5.80;1.00
9925;DHT22;5001;51.674;7.868;2024-01-30T04:45:26;5.80;1.00
9925;DHT22;5001;51.674;7.868;2024-01-30T04:47:53;5.70;1.00
9925;DHT22;5001;51.674;7.868;2024-01-30T04:50:20;5.60;1.00
9925;DHT22;5001;51.674;7.868;2024-01-30T04:52:47;5.60;1.00
9925;DHT22;5001;51.674;7.868;2024-01-30T04:55:14;5.50;1.00
9925;DHT22;5001;51.674;7.868;2024-01-30T04:57:41;5.50;1.00
9925;DHT22;5001;51.674;7.868;2024-01-30T05:00:09;5.50;1.00
9925;DHT22;5001;51.674;7.868;2024-01-30T05:02:36;5.50;1.00
9925;DHT22;5001;51.674;7.868;2024-01-30T05:05:03;5.50;1.00
9925;DHT22;5001;51.674;7.868;2024-01-30T05:07:31;5.40;1.00
9925;DHT22;5001;51.674;7.868;2024-01-30T05:09:58;5.30;1.00
9925;DHT22;5001;51.674;7.868;2024-01-30T05:12:27;5.40;1.00
9925;DHT22;5001;51.674;7.868;2024-01-30T05:14:54;5.30;1.00
9925;DHT22;5001;51.674;7.868;2024-01-30T05:17:21;5.30;1.00
9925;DHT22;5001;51.674;7.868;2024-01-30T05:19:48;5.20;1.00
9925;DHT22;5001;51.674;7.868;2024-01-30T05:22:15;5.10;1.00
9925;DHT22;5001;51.674;7.868;2024-01-30T05:24:42;5.10;1.00
9925;DHT22;5001;51.674;7.868;2024-01-30T05:27:10;5.10;1.00
9925;DHT22;5001;51.674;7.868;2024-01-30T05:29:37;5.30;1.00
9925;DHT22;5001;51.674;7.868;2024-01-30T05:32:04;5.40;1.00
9925;DHT22;5001;51.674;7.868;2024-01-30T05:34:32;5.30;1.00
9925;DHT22;5001;51.674;7.868;2024-01-30T05:36:59;5.10;1.00
9925;DHT22;5001;51.674;7.868;2024-01-30T05:39:26;5.00;1.00
9925;DHT22;5001;51.674;7.868;2024-01-30T05:41:53;4.90;1.00
9925;DHT22;5001;51.674;7.868;2024-01-30T05:44:20;4.90;1.00
9925;DHT22;5001;51.674;7.868;2024-01-30T05:46:48;5.00;1.00
9925;DHT22;5001;51.674;7.868;2024-01-30T05:49:15;5.00;1.00
9925;DHT22;5001;51.674;7.868;2024-01-30T05:51:41;5.00;1.00
9925;DHT22;5001;51.674;7.868;2024-01-30T05:54:09;5.00;1.00
9925;DHT22;5001;51.674;7.868;2024-01-30T05:56:35;5.00;1.00
9925;DHT22;5001;51.674;7.868;2024-01-30T05:59:02;5.00;1.00
9925;DHT22;5001;51.674;7.868;2024-01-30T06:01:29;4.90;1.00
9925;DHT22;5001;51.674;7.868;2024-01-30T06:03:58;4.80;1.00
9925;DHT22;5001;51.674;7.868;2024-01-30T06:06:25;4.70;1.00
9925;DHT22;5001;51.674;7.868;2024-01-30T06:08:52;4.60;1.00
9925;DHT22;5001;51.674;7.868;2024-01-30T06:11:21;4.70;1.00
9925;DHT22;5001;51.674;7.868;2024-01-30T06:13:48;4.70;1.00
9925;DHT22;5001;51.674;7.868;2024-01-30T06:16:15;4.70;1.00
9925;DHT22;5001;51.674;7.868;2024-01-30T06:18:42;4.70;1.00
9925;DHT22;5001;51.674;7.868;2024-01-30T06:21:09;4.60;1.00
9925;DHT22;5001;51.674;7.868;2024-01-30T06:23:39;4.50;1.00
9925;DHT22;5001;51.674;7.868;2024-01-30T06:26:07;4.40;1.00
9925;DHT22;5001;51.674;7.868;2024-01-30T06:28:34;4.40;1.00
9925;DHT22;5001;51.674;7.868;2024-01-30T06:31:01;4.40;1.00
9925;DHT22;5001;51.674;7.868;2024-01-30T06:33:28;4.30;1.00
9925;DHT22;5001;51.674;7.868;2024-01-30T06:35:55;4.20;1.00
9925;DHT22;5001;51.674;7.868;2024-01-30T06:38:22;4.10;1.00
9925;DHT22;5001;51.674;7.868;2024-01-30T06:40:49;4.00;1.00
9925;DHT22;5001;51.674;7.868;2024-01-30T06:43:16;4.10;1.00
9925;DHT22;5001;51.674;7.868;2024-01-30T06:45:43;4.10;1.00
9925;DHT22;5001;51.674;7.868;2024-01-30T06:48:10;4.10;1.00
9925;DHT22;5001;51.674;7.868;2024-01-30T06:50:37;4.10;1.00
9925;DHT22;5001;51.674;7.868;2024-01-30T06:53:04;4.10;1.00
9925;DHT22;5001;51.674;7.868;2024-01-30T06:55:32;4.10;1.00
9925;DHT22;5001;51.674;7.868;2024-01-30T06:57:59;4.10;1.00
9925;DHT22;5001;51.674;7.868;2024-01-30T07:00:26;4.10;1.00
9925;DHT22;5001;51.674;7.868;2024-01-30T07:02:53;4.20;1.00
9925;DHT22;5001;51.674;7.868;2024-01-30T07:05:20;4.30;1.00
9925;DHT22;5001;51.674;7.868;2024-01-30T07:07:48;4.30;1.00
9925;DHT22;5001;51.674;7.868;2024-01-30T07:10:15;4.30;1.00
9925;DHT22;5001;51.674;7.868;2024-01-30T07:12:42;4.30;1.00
9925;DHT22;5001;51.674;7.868;2024-01-30T07:15:10;4.30;1.00
9925;DHT22;5001;51.674;7.868;2024-01-30T07:17:37;4.40;1.00
9925;DHT22;5001;51.674;7.868;2024-01-30T07:20:04;4.40;1.00
9925;DHT22;5001;51.674;7.868;2024-01-30T07:22:33;4.50;1.00
9925;DHT22;5001;51.674;7.868;2024-01-30T07:25:00;4.50;1.00
9925;DHT22;5001;51.674;7.868;2024-01-30T07:27:27;4.60;1.00
9925;DHT22;5001;51.674;7.868;2024-01-30T07:29:54;4.60;1.00
9925;DHT22;5001;51.674;7.868;2024-01-30T07:32:21;4.70;1.00
9925;DHT22;5001;51.674;7.868;2024-01-30T07:34:48;4.70;1.00
9925;DHT22;5001;51.674;7.868;2024-01-30T07:37:32;4.80;1.00
9925;DHT22;5001;51.674;7.868;2024-01-30T07:40:00;5.00;1.00
9925;DHT22;5001;51.674;7.868;2024-01-30T07:42:27;5.10;1.00
9925;DHT22;5001;51.674;7.868;2024-01-30T07:44:54;5.20;1.00
9925;DHT22;5001;51.674;7.868;2024-01-30T07:47:21;5.30;1.00
9925;DHT22;5001;51.674;7.868;2024-01-30T07:49:48;5.50;1.00
9925;DHT22;5001;51.674;7.868;2024-01-30T07:52:15;5.60;1.00
9925;DHT22;5001;51.674;7.868;2024-01-30T07:54:42;5.70;1.00
9925;DHT22;5001;51.674;7.868;2024-01-30T07:57:10;5.80;1.00
9925;DHT22;5001;51.674;7.868;2024-01-30T07:59:37;6.20;1.00
9925;DHT22;5001;51.674;7.868;2024-01-30T08:02:04;6.40;99.90
9925;DHT22;5001;51.674;7.868;2024-01-30T08:04:31;6.40;1.00
9925;DHT22;5001;51.674;7.868;2024-01-30T08:06:58;6.40;99.90
9925;DHT22;5001;51.674;7.868;2024-01-30T08:09:25;6.40;99.90
9925;DHT22;5001;51.674;7.868;2024-01-30T08:11:52;6.30;99.90
9925;DHT22;5001;51.674;7.868;2024-01-30T08:14:19;6.30;99.90
9925;DHT22;5001;51.674;7.868;2024-01-30T08:16:46;6.30;99.90
9925;DHT22;5001;51.674;7.868;2024-01-30T08:19:13;6.50;99.90
9925;DHT22;5001;51.674;7.868;2024-01-30T08:21:41;6.60;99.90
9925;DHT22;5001;51.674;7.868;2024-01-30T08:24:08;6.70;99.90
9925;DHT22;5001;51.674;7.868;2024-01-30T08:26:35;6.90;99.90
9925;DHT22;5001;51.674;7.868;2024-01-30T08:29:02;7.00;99.90
9925;DHT22;5001;51.674;7.868;2024-01-30T08:31:29;7.20;99.90
9925;DHT22;5001;51.674;7.868;2024-01-30T08:33:56;7.30;99.90
9925;DHT22;5001;51.674;7.868;2024-01-30T08:36:23;7.40;99.90
9925;DHT22;5001;51.674;7.868;2024-01-30T08:38:50;7.50;99.90
9925;DHT22;5001;51.674;7.868;2024-01-30T08:41:20;7.70;99.90
9925;DHT22;5001;51.674;7.868;2024-01-30T08:43:47;7.80;99.90
9925;DHT22;5001;51.674;7.868;2024-01-30T08:46:17;8.00;99.90
9925;DHT22;5001;51.674;7.868;2024-01-30T08:48:46;8.10;99.90
9925;DHT22;5001;51.674;7.868;2024-01-30T08:51:14;8.20;99.90
9925;DHT22;5001;51.674;7.868;2024-01-30T08:53:42;8.30;99.90
9925;DHT22;5001;51.674;7.868;2024-01-30T08:56:09;8.40;99.90
9925;DHT22;5001;51.674;7.868;2024-01-30T08:58:36;8.60;99.90
9925;DHT22;5001;51.674;7.868;2024-01-30T09:01:04;8.70;99.90
9925;DHT22;5001;51.674;7.868;2024-01-30T09:03:32;8.80;99.90
9925;DHT22;5001;51.674;7.868;2024-01-30T09:05:59;8.90;99.90
9925;DHT22;5001;51.674;7.868;2024-01-30T09:08:26;8.90;99.90
9925;DHT22;5001;51.674;7.868;2024-01-30T09:10:53;8.90;99.90
9925;DHT22;5001;51.674;7.868;2024-01-30T09:13:21;8.90;99.90
9925;DHT22;5001;51.674;7.868;2024-01-30T09:15:48;8.80;99.90
9925;DHT22;5001;51.674;7.868;2024-01-30T09:18:15;8.90;99.90
9925;DHT22;5001;51.674;7.868;2024-01-30T09:20:42;8.90;99.90
9925;DHT22;5001;51.674;7.868;2024-01-30T09:23:10;9.00;99.90
9925;DHT22;5001;51.674;7.868;2024-01-30T09:25:38;9.10;99.90
9925;DHT22;5001;51.674;7.868;2024-01-30T09:28:05;9.20;99.90
9925;DHT22;5001;51.674;7.868;2024-01-30T09:30:32;9.50;99.90
9925;DHT22;5001;51.674;7.868;2024-01-30T09:32:59;9.90;99.90
9925;DHT22;5001;51.674;7.868;2024-01-30T09:35:27;10.50;99.90
9925;DHT22;5001;51.674;7.868;2024-01-30T09:37:54;11.30;99.90
9925;DHT22;5001;51.674;7.868;2024-01-30T09:40:21;12.20;99.90
9925;DHT22;5001;51.674;7.868;2024-01-30T09:42:50;12.40;99.90
9925;DHT22;5001;51.674;7.868;2024-01-30T09:45:18;12.10;99.90
9925;DHT22;5001;51.674;7.868;2024-01-30T09:47:45;11.60;99.90
9925;DHT22;5001;51.674;7.868;2024-01-30T09:50:14;11.40;99.90
9925;DHT22;5001;51.674;7.868;2024-01-30T09:52:43;11.20;99.90
9925;DHT22;5001;51.674;7.868;2024-01-30T09:55:11;10.90;99.90
9925;DHT22;5001;51.674;7.868;2024-01-30T09:57:38;10.80;99.90
9925;DHT22;5001;51.674;7.868;2024-01-30T10:00:06;10.90;99.90
9925;DHT22;5001;51.674;7.868;2024-01-30T10:02:39;10.90;99.90
9925;DHT22;5001;51.674;7.868;2024-01-30T10:05:08;10.90;99.90
9925;DHT22;5001;51.674;7.868;2024-01-30T10:07:35;11.00;99.90
9925;DHT22;5001;51.674;7.868;2024-01-30T10:10:04;11.50;99.90
9925;DHT22;5001;51.674;7.868;2024-01-30T10:12:31;12.60;99.90
9925;DHT22;5001;51.674;7.868;2024-01-30T10:14:59;13.80;99.90
9925;DHT22;5001;51.674;7.868;2024-01-30T10:17:26;13.50;99.90
9925;DHT22;5001;51.674;7.868;2024-01-30T10:20:00;12.90;99.90
9925;DHT22;5001;51.674;7.868;2024-01-30T10:22:28;12.70;99.90
9925;DHT22;5001;51.674;7.868;2024-01-30T10:24:55;12.30;99.90
9925;DHT22;5001;51.674;7.868;2024-01-30T10:27:26;12.30;99.90
9925;DHT22;5001;51.674;7.868;2024-01-30T10:29:54;12.00;99.90
9925;DHT22;5001;51.674;7.868;2024-01-30T10:32:21;11.80;99.90
9925;DHT22;5001;51.674;7.868;2024-01-30T10:34:48;11.60;99.90
9925;DHT22;5001;51.674;7.868;2024-01-30T10:37:17;11.70;99.90
9925;DHT22;5001;51.674;7.868;2024-01-30T10:39:46;11.60;99.90
9925;DHT22;5001;51.674;7.868;2024-01-30T10:42:15;11.70;99.90
9925;DHT22;5001;51.674;7.868;2024-01-30T10:44:55;12.40;99.90
9925;DHT22;5001;51.674;7.868;2024-01-30T10:47:28;12.70;99.90
9925;DHT22;5001;51.674;7.868;2024-01-30T10:49:56;12.70;99.90
9925;DHT22;5001;51.674;7.868;2024-01-30T10:52:24;12.70;99.90
9925;DHT22;5001;51.674;7.868;2024-01-30T10:54:54;12.60;99.90
9925;DHT22;5001;51.674;7.868;2024-01-30T10:57:24;12.50;99.90
9925;DHT22;5001;51.674;7.868;2024-01-30T10:59:57;12.40;99.90
9925;DHT22;5001;51.674;7.868;2024-01-30T11:02:27;12.40;99.90
9925;DHT22;5001;51.674;7.868;2024-01-30T11:04:58;12.30;99.90
9925;DHT22;5001;51.674;7.868;2024-01-30T11:07:28;12.30;99.90
9925;DHT22;5001;51.674;7.868;2024-01-30T11:12:31;12.20;99.90
9925;DHT22;5001;51.674;7.868;2024-01-30T11:20:26;12.40;99.90
9925;DHT22;5001;51.674;7.868;2024-01-30T11:22:56;12.40;99.90
9925;DHT22;5001;51.674;7.868;2024-01-30T11:25:24;12.50;99.90
9925;DHT22;5001;51.674;7.868;2024-01-30T11:27:55;12.70;99.90
9925;DHT22;5001;51.674;7.868;2024-01-30T11:30:29;13.00;99.90
9925;DHT22;5001;51.674;7.868;2024-01-30T11:38:10;13.90;99.90
9925;DHT22;5001;51.674;7.868;2024-01-30T11:40:38;13.90;99.90
9925;DHT22;5001;51.674;7.868;2024-01-30T11:43:07;15.80;99.90
9925;DHT22;5001;51.674;7.868;2024-01-30T11:45:36;17.60;99.90
9925;DHT22;5001;51.674;7.868;2024-01-30T11:48:04;16.70;99.90
9925;DHT22;5001;51.674;7.868;2024-01-30T11:50:35;15.80;99.90
9925;DHT22;5001;51.674;7.868;2024-01-30T11:53:02;15.60;99.90
9925;DHT22;5001;51.674;7.868;2024-01-30T11:55:30;17.10;99.90
9925;DHT22;5001;51.674;7.868;2024-01-30T11:58:01;17.90;99.90
9925;DHT22;5001;51.674;7.868;2024-01-30T12:00:28;16.50;99.90
9925;DHT22;5001;51.674;7.868;2024-01-30T12:02:58;15.90;99.90
9925;DHT22;5001;51.674;7.868;2024-01-30T12:05:28;15.50;99.90
9925;DHT22;5001;51.674;7.868;2024-01-30T12:07:55;14.90;99.90
9925;DHT22;5001;51.674;7.868;2024-01-30T12:10:26;14.60;99.90
9925;DHT22;5001;51.674;7.868;2024-01-30T12:12:53;14.30;99.90
9925;DHT22;5001;51.674;7.868;2024-01-30T12:15:22;14.30;99.90
9925;DHT22;5001;51.674;7.868;2024-01-30T12:17:49;14.30;99.90
9925;DHT22;5001;51.674;7.868;2024-01-30T12:20:20;14.30;99.90
9925;DHT22;5001;51.674;7.868;2024-01-30T12:22:49;14.40;99.90
9925;DHT22;5001;51.674;7.868;2024-01-30T12:25:18;14.30;99.90
9925;DHT22;5001;51.674;7.868;2024-01-30T12:27:48;14.00;99.90
9925;DHT22;5001;51.674;7.868;2024-01-30T12:30:20;13.70;99.90
9925;DHT22;5001;51.674;7.868;2024-01-30T12:32:50;13.60;99.90
9925;DHT22;5001;51.674;7.868;2024-01-30T12:35:19;13.50;99.90
9925;DHT22;5001;51.674;7.868;2024-01-30T12:37:48;13.40;99.90
9925;DHT22;5001;51.674;7.868;2024-01-30T12:40:16;13.50;99.90
9925;DHT22;5001;51.674;7.868;2024-01-30T12:42:46;13.50;99.90
9925;DHT22;5001;51.674;7.868;2024-01-30T12:45:16;13.50;99.90
9925;DHT22;5001;51.674;7.868;2024-01-30T12:47:47;13.60;99.90
9925;DHT22;5001;51.674;7.868;2024-01-30T12:50:15;13.70;99.90
9925;DHT22;5001;51.674;7.868;2024-01-30T12:52:44;13.80;99.90
9925;DHT22;5001;51.674;7.868;2024-01-30T12:55:16;13.80;99.90
9925;DHT22;5001;51.674;7.868;2024-01-30T12:57:43;13.90;99.90
9925;DHT22;5001;51.674;7.868;2024-01-30T13:00:10;13.70;99.90
9925;DHT22;5001;51.674;7.868;2024-01-30T13:02:38;13.60;99.90
9925;DHT22;5001;51.674;7.868;2024-01-30T13:05:05;13.40;99.90
9925;DHT22;5001;51.674;7.868;2024-01-30T13:07:32;13.30;99.90
9925;DHT22;5001;51.674;7.868;2024-01-30T13:10:00;13.20;99.90
9925;DHT22;5001;51.674;7.868;2024-01-30T13:12:31;13.10;99.90
9925;DHT22;5001;51.674;7.868;2024-01-30T13:15:02;13.00;99.90
9925;DHT22;5001;51.674;7.868;2024-01-30T13:17:31;13.00;99.90
9925;DHT22;5001;51.674;7.868;2024-01-30T13:19:58;13.00;99.90
9925;DHT22;5001;51.674;7.868;2024-01-30T13:22:37;12.90;99.90
9925;DHT22;5001;51.674;7.868;2024-01-30T13:25:06;12.90;99.90
9925;DHT22;5001;51.674;7.868;2024-01-30T13:27:35;12.90;99.90
9925;DHT22;5001;51.674;7.868;2024-01-30T13:30:02;12.80;99.90
9925;DHT22;5001;51.674;7.868;2024-01-30T13:32:30;12.80;99.90
9925;DHT22;5001;51.674;7.868;2024-01-30T13:34:57;12.70;99.90
9925;DHT22;5001;51.674;7.868;2024-01-30T13:37:24;12.70;99.90
9925;DHT22;5001;51.674;7.868;2024-01-30T13:39:51;12.70;99.90
9925;DHT22;5001;51.674;7.868;2024-01-30T13:42:18;12.70;99.90
9925;DHT22;5001;51.674;7.868;2024-01-30T13:44:45;12.70;99.90
9925;DHT22;5001;51.674;7.868;2024-01-30T13:47:12;12.70;99.90
9925;DHT22;5001;51.674;7.868;2024-01-30T13:49:39;12.70;99.90
9925;DHT22;5001;51.674;7.868;2024-01-30T13:52:07;12.70;99.90
9925;DHT22;5001;51.674;7.868;2024-01-30T13:54:35;12.70;99.90
9925;DHT22;5001;51.674;7.868;2024-01-30T13:57:02;12.60;99.90
9925;DHT22;5001;51.674;7.868;2024-01-30T13:59:29;12.60;99.90
9925;DHT22;5001;51.674;7.868;2024-01-30T14:01:56;12.50;99.90
9925;DHT22;5001;51.674;7.868;2024-01-30T14:04:23;12.50;99.90
9925;DHT22;5001;51.674;7.868;2024-01-30T14:06:50;12.50;99.90
9925;DHT22;5001;51.674;7.868;2024-01-30T14:09:30;12.40;99.90
9925;DHT22;5001;51.674;7.868;2024-01-30T14:11:59;12.40;99.90
9925;DHT22;5001;51.674;7.868;2024-01-30T14:14:28;12.40;99.90
9925;DHT22;5001;51.674;7.868;2024-01-30T14:16:55;12.40;99.90
9925;DHT22;5001;51.674;7.868;2024-01-30T14:19:22;12.40;99.90
9925;DHT22;5001;51.674;7.868;2024-01-30T14:21:49;12.40;99.90
9925;DHT22;5001;51.674;7.868;2024-01-30T14:24:16;12.40;99.90
9925;DHT22;5001;51.674;7.868;2024-01-30T14:26:43;12.40;99.90
9925;DHT22;5001;51.674;7.868;2024-01-30T14:29:11;12.40;99.90
9925;DHT22;5001;51.674;7.868;2024-01-30T14:31:38;12.40;99.90
9925;DHT22;5001;51.674;7.868;2024-01-30T14:34:05;12.40;99.90
9925;DHT22;5001;51.674;7.868;2024-01-30T14:36:32;12.40;99.90
9925;DHT22;5001;51.674;7.868;2024-01-30T14:38:59;12.30;99.90
9925;DHT22;5001;51.674;7.868;2024-01-30T14:41:26;12.30;99.90
9925;DHT22;5001;51.674;7.868;2024-01-30T14:43:53;12.30;99.90
9925;DHT22;5001;51.674;7.868;2024-01-30T14:46:21;12.20;99.90
9925;DHT22;5001;51.674;7.868;2024-01-30T14:48:48;12.20;99.90
9925;DHT22;5001;51.674;7.868;2024-01-30T14:51:15;12.20;99.90
9925;DHT22;5001;51.674;7.868;2024-01-30T14:53:43;12.20;99.90
9925;DHT22;5001;51.674;7.868;2024-01-30T14:56:10;12.20;99.90
9925;DHT22;5001;51.674;7.868;2024-01-30T14:58:37;12.20;99.90
9925;DHT22;5001;51.674;7.868;2024-01-30T15:01:04;12.20;99.90
9925;DHT22;5001;51.674;7.868;2024-01-30T15:03:32;12.20;99.90
9925;DHT22;5001;51.674;7.868;2024-01-30T15:05:59;12.20;99.90
9925;DHT22;5001;51.674;7.868;2024-01-30T15:08:26;12.20;99.90
9925;DHT22;5001;51.674;7.868;2024-01-30T15:10:53;12.30;99.90
9925;DHT22;5001;51.674;7.868;2024-01-30T15:13:20;12.30;99.90
9925;DHT22;5001;51.674;7.868;2024-01-30T15:15:47;12.30;99.90
9925;DHT22;5001;51.674;7.868;2024-01-30T15:18:14;12.30;99.90
9925;DHT22;5001;51.674;7.868;2024-01-30T15:20:41;12.30;99.90
9925;DHT22;5001;51.674;7.868;2024-01-30T15:23:08;12.30;99.90
9925;DHT22;5001;51.674;7.868;2024-01-30T15:25:35;12.30;99.90
9925;DHT22;5001;51.674;7.868;2024-01-30T15:28:03;12.30;99.90
9925;DHT22;5001;51.674;7.868;2024-01-30T15:30:30;12.20;99.90
9925;DHT22;5001;51.674;7.868;2024-01-30T15:32:57;12.20;99.90
9925;DHT22;5001;51.674;7.868;2024-01-30T15:35:24;12.10;99.90
9925;DHT22;5001;51.674;7.868;2024-01-30T15:37:51;12.10;99.90
9925;DHT22;5001;51.674;7.868;2024-01-30T15:40:18;12.10;99.90
9925;DHT22;5001;51.674;7.868;2024-01-30T15:42:45;12.00;99.90
9925;DHT22;5001;51.674;7.868;2024-01-30T15:45:12;12.00;99.90
9925;DHT22;5001;51.674;7.868;2024-01-30T15:47:39;11.90;99.90
9925;DHT22;5001;51.674;7.868;2024-01-30T15:50:07;11.80;99.90
9925;DHT22;5001;51.674;7.868;2024-01-30T15:52:36;11.80;99.90
9925;DHT22;5001;51.674;7.868;2024-01-30T15:55:03;11.70;99.90
9925;DHT22;5001;51.674;7.868;2024-01-30T15:57:30;11.60;99.90
9925;DHT22;5001;51.674;7.868;2024-01-30T15:59:57;11.50;99.90
9925;DHT22;5001;51.674;7.868;2024-01-30T16:02:24;11.40;99.90
9925;DHT22;5001;51.674;7.868;2024-01-30T16:04:51;11.30;99.90
9925;DHT22;5001;51.674;7.868;2024-01-30T16:07:18;11.30;99.90
9925;DHT22;5001;51.674;7.868;2024-01-30T16:09:45;11.30;99.90
9925;DHT22;5001;51.674;7.868;2024-01-30T16:12:12;11.30;99.90
9925;DHT22;5001;51.674;7.868;2024-01-30T16:14:39;11.30;99.90
9925;DHT22;5001;51.674;7.868;2024-01-30T16:17:06;11.30;99.90
9925;DHT22;5001;51.674;7.868;2024-01-30T16:19:33;11.30;99.90
9925;DHT22;5001;51.674;7.868;2024-01-30T16:22:00;11.20;99.90
9925;DHT22;5001;51.674;7.868;2024-01-30T16:24:27;11.10;99.90
9925;DHT22;5001;51.674;7.868;2024-01-30T16:26:55;11.10;99.90
9925;DHT22;5001;51.674;7.868;2024-01-30T16:29:23;11.00;99.90
9925;DHT22;5001;51.674;7.868;2024-01-30T16:31:50;10.90;99.90
9925;DHT22;5001;51.674;7.868;2024-01-30T16:34:17;10.90;99.90
9925;DHT22;5001;51.674;7.868;2024-01-30T16:36:44;10.90;99.90